sensor_id;sensor_type;location;lat;lon;timestamp;P1;durP1;ratioP1;P2;durP2;ratioP2
80567;SDS011;69922;45.656;25.586;2023-05-07T00:00:54;5.30;;;3.50;;
80567;SDS011;69922;45.656;25.586;2023-05-07T00:02:03;5.00;;;3.70;;
80567;SDS011;69922;45.656;25.586;2023-05-07T00:03:09;4.70;;;3.70;;
80567;SDS011;69922;45.656;25.586;2023-05-07T00:04:15;8.10;;;3.20;;
80567;SDS011;69922;45.656;25.586;2023-05-07T00:05:22;4.20;;;3.10;;
80567;SDS011;69922;45.656;25.586;2023-05-07T00:06:29;4.90;;;3.00;;
80567;SDS011;69922;45.656;25.586;2023-05-07T00:07:36;5.10;;;3.10;;
80567;SDS011;69922;45.656;25.586;2023-05-07T00:08:42;5.20;;;3.50;;
80567;SDS011;69922;45.656;25.586;2023-05-07T00:09:49;5.70;;;3.00;;
80567;SDS011;69922;45.656;25.586;2023-05-07T00:10:55;4.90;;;2.70;;
80567;SDS011;69922;45.656;25.586;2023-05-07T00:12:01;5.20;;;3.50;;
80567;SDS011;69922;45.656;25.586;2023-05-07T00:13:07;5.40;;;3.50;;
80567;SDS011;69922;45.656;25.586;2023-05-07T00:14:14;6.50;;;3.20;;
80567;SDS011;69922;45.656;25.586;2023-05-07T00:15:20;4.90;;;3.40;;
80567;SDS011;69922;45.656;25.586;2023-05-07T00:16:26;4.40;;;3.40;;
80567;SDS011;69922;45.656;25.586;2023-05-07T00:17:33;5.80;;;3.30;;
80567;SDS011;69922;45.656;25.586;2023-05-07T00:18:39;6.40;;;3.50;;
80567;SDS011;69922;45.656;25.586;2023-05-07T00:19:46;6.00;;;3.70;;
80567;SDS011;69922;45.656;25.586;2023-05-07T00:20:52;6.80;;;3.70;;
80567;SDS011;69922;45.656;25.586;2023-05-07T00:21:59;5.30;;;3.20;;
80567;SDS011;69922;45.656;25.586;2023-05-07T00:23:05;5.50;;;3.80;;
80567;SDS011;69922;45.656;25.586;2023-05-07T00:24:12;5.20;;;3.00;;
80567;SDS011;69922;45.656;25.586;2023-05-07T00:25:18;5.90;;;3.70;;
80567;SDS011;69922;45.656;25.586;2023-05-07T00:26:25;4.60;;;3.50;;
80567;SDS011;69922;45.656;25.586;2023-05-07T00:27:31;4.80;;;3.10;;
80567;SDS011;69922;45.656;25.586;2023-05-07T00:28:37;4.80;;;3.20;;
80567;SDS011;69922;45.656;25.586;2023-05-07T00:29:44;5.40;;;3.80;;
80567;SDS011;69922;45.656;25.586;2023-05-07T00:30:50;7.00;;;3.40;;
80567;SDS011;69922;45.656;25.586;2023-05-07T00:31:57;5.20;;;3.90;;
80567;SDS011;69922;45.656;25.586;2023-05-07T00:33:03;4.50;;;3.40;;
80567;SDS011;69922;45.656;25.586;2023-05-07T00:34:09;5.30;;;3.80;;
80567;SDS011;69922;45.656;25.586;2023-05-07T00:35:16;6.40;;;3.60;;
80567;SDS011;69922;45.656;25.586;2023-05-07T00:36:22;5.30;;;3.30;;
80567;SDS011;69922;45.656;25.586;2023-05-07T00:37:30;5.20;;;3.00;;
80567;SDS011;69922;45.656;25.586;2023-05-07T00:38:36;4.40;;;3.10;;
80567;SDS011;69922;45.656;25.586;2023-05-07T00:39:42;5.30;;;3.20;;
80567;SDS011;69922;45.656;25.586;2023-05-07T00:40:49;5.10;;;3.20;;
80567;SDS011;69922;45.656;25.586;2023-05-07T00:41:55;6.20;;;3.20;;
80567;SDS011;69922;45.656;25.586;2023-05-07T00:43:01;6.90;;;3.30;;
80567;SDS011;69922;45.656;25.586;2023-05-07T00:44:07;5.00;;;3.90;;
80567;SDS011;69922;45.656;25.586;2023-05-07T00:45:14;4.00;;;3.50;;
80567;SDS011;69922;45.656;25.586;2023-05-07T00:46:21;5.80;;;3.60;;
80567;SDS011;69922;45.656;25.586;2023-05-07T00:47:29;5.50;;;3.60;;
80567;SDS011;69922;45.656;25.586;2023-05-07T00:48:35;5.60;;;3.40;;
80567;SDS011;69922;45.656;25.586;2023-05-07T00:49:42;5.90;;;3.30;;
80567;SDS011;69922;45.656;25.586;2023-05-07T00:50:49;7.00;;;3.40;;
80567;SDS011;69922;45.656;25.586;2023-05-07T00:51:56;5.70;;;3.50;;
80567;SDS011;69922;45.656;25.586;2023-05-07T00:53:04;5.20;;;3.90;;
80567;SDS011;69922;45.656;25.586;2023-05-07T00:54:10;7.00;;;3.60;;
80567;SDS011;69922;45.656;25.586;2023-05-07T00:55:18;5.80;;;3.50;;
80567;SDS011;69922;45.656;25.586;2023-05-07T00:56:25;6.10;;;3.80;;
80567;SDS011;69922;45.656;25.586;2023-05-07T00:57:31;5.70;;;3.80;;
80567;SDS011;69922;45.656;25.586;2023-05-07T00:58:40;4.70;;;3.50;;
80567;SDS011;69922;45.656;25.586;2023-05-07T00:59:47;5.00;;;3.90;;
80567;SDS011;69922;45.656;25.586;2023-05-07T01:00:55;5.20;;;3.50;;
80567;SDS011;69922;45.656;25.586;2023-05-07T01:02:02;4.60;;;3.00;;
80567;SDS011;69922;45.656;25.586;2023-05-07T01:03:09;4.30;;;3.40;;
80567;SDS011;69922;45.656;25.586;2023-05-07T01:04:15;5.50;;;3.40;;
80567;SDS011;69922;45.656;25.586;2023-05-07T01:05:22;6.70;;;2.90;;
80567;SDS011;69922;45.656;25.586;2023-05-07T01:06:30;4.30;;;2.90;;
80567;SDS011;69922;45.656;25.586;2023-05-07T01:07:38;5.60;;;3.20;;
80567;SDS011;69922;45.656;25.586;2023-05-07T01:08:47;7.10;;;3.90;;
80567;SDS011;69922;45.656;25.586;2023-05-07T01:09:57;5.70;;;3.50;;
80567;SDS011;69922;45.656;25.586;2023-05-07T01:11:04;5.90;;;3.70;;
80567;SDS011;69922;45.656;25.586;2023-05-07T01:12:11;7.10;;;4.00;;
80567;SDS011;69922;45.656;25.586;2023-05-07T01:13:17;7.00;;;4.30;;
80567;SDS011;69922;45.656;25.586;2023-05-07T01:14:25;8.50;;;4.50;;
80567;SDS011;69922;45.656;25.586;2023-05-07T01:15:31;6.20;;;3.80;;
80567;SDS011;69922;45.656;25.586;2023-05-07T01:16:39;6.90;;;3.60;;
80567;SDS011;69922;45.656;25.586;2023-05-07T01:17:45;8.80;;;4.10;;
80567;SDS011;69922;45.656;25.586;2023-05-07T01:18:52;6.90;;;4.40;;
80567;SDS011;69922;45.656;25.586;2023-05-07T01:19:58;7.30;;;4.10;;
80567;SDS011;69922;45.656;25.586;2023-05-07T01:21:06;9.40;;;4.00;;
80567;SDS011;69922;45.656;25.586;2023-05-07T01:22:16;7.00;;;4.20;;
80567;SDS011;69922;45.656;25.586;2023-05-07T01:23:23;6.90;;;4.50;;
80567;SDS011;69922;45.656;25.586;2023-05-07T01:24:32;7.80;;;4.30;;
80567;SDS011;69922;45.656;25.586;2023-05-07T01:25:39;8.90;;;4.90;;
80567;SDS011;69922;45.656;25.586;2023-05-07T01:26:45;7.50;;;4.30;;
80567;SDS011;69922;45.656;25.586;2023-05-07T01:27:52;7.70;;;4.00;;
80567;SDS011;69922;45.656;25.586;2023-05-07T01:28:58;4.80;;;4.10;;
80567;SDS011;69922;45.656;25.586;2023-05-07T01:30:06;5.50;;;4.00;;
80567;SDS011;69922;45.656;25.586;2023-05-07T01:31:14;7.00;;;4.10;;
80567;SDS011;69922;45.656;25.586;2023-05-07T01:32:23;7.20;;;4.30;;
80567;SDS011;69922;45.656;25.586;2023-05-07T01:33:49;5.10;;;3.90;;
80567;SDS011;69922;45.656;25.586;2023-05-07T01:34:57;7.20;;;3.80;;
80567;SDS011;69922;45.656;25.586;2023-05-07T01:36:06;6.20;;;4.10;;
80567;SDS011;69922;45.656;25.586;2023-05-07T01:37:15;8.10;;;3.70;;
80567;SDS011;69922;45.656;25.586;2023-05-07T01:38:21;5.60;;;4.10;;
80567;SDS011;69922;45.656;25.586;2023-05-07T01:39:29;5.70;;;3.70;;
80567;SDS011;69922;45.656;25.586;2023-05-07T01:40:36;5.10;;;3.40;;
80567;SDS011;69922;45.656;25.586;2023-05-07T01:41:42;5.90;;;3.40;;
80567;SDS011;69922;45.656;25.586;2023-05-07T01:42:49;4.20;;;3.30;;
80567;SDS011;69922;45.656;25.586;2023-05-07T01:43:56;5.30;;;3.90;;
80567;SDS011;69922;45.656;25.586;2023-05-07T01:45:05;6.50;;;3.50;;
80567;SDS011;69922;45.656;25.586;2023-05-07T01:46:13;6.50;;;4.20;;
80567;SDS011;69922;45.656;25.586;2023-05-07T01:47:21;7.20;;;3.60;;
80567;SDS011;69922;45.656;25.586;2023-05-07T01:48:30;6.20;;;3.60;;
80567;SDS011;69922;45.656;25.586;2023-05-07T01:49:36;6.40;;;3.90;;
80567;SDS011;69922;45.656;25.586;2023-05-07T01:50:43;7.30;;;3.40;;
80567;SDS011;69922;45.656;25.586;2023-05-07T01:51:50;7.30;;;3.80;;
80567;SDS011;69922;45.656;25.586;2023-05-07T01:52:56;6.90;;;4.10;;
80567;SDS011;69922;45.656;25.586;2023-05-07T01:54:03;6.80;;;4.20;;
80567;SDS011;69922;45.656;25.586;2023-05-07T01:55:12;6.80;;;3.30;;
80567;SDS011;69922;45.656;25.586;2023-05-07T01:56:18;4.50;;;3.30;;
80567;SDS011;69922;45.656;25.586;2023-05-07T01:57:24;5.50;;;3.80;;
80567;SDS011;69922;45.656;25.586;2023-05-07T01:58:31;4.90;;;3.60;;
80567;SDS011;69922;45.656;25.586;2023-05-07T01:59:37;5.10;;;3.60;;
80567;SDS011;69922;45.656;25.586;2023-05-07T02:00:44;5.60;;;3.90;;
80567;SDS011;69922;45.656;25.586;2023-05-07T02:01:50;5.10;;;3.60;;
80567;SDS011;69922;45.656;25.586;2023-05-07T02:02:56;4.50;;;3.70;;
80567;SDS011;69922;45.656;25.586;2023-05-07T02:04:04;8.00;;;4.10;;
80567;SDS011;69922;45.656;25.586;2023-05-07T02:05:10;6.90;;;3.80;;
80567;SDS011;69922;45.656;25.586;2023-05-07T02:06:16;5.60;;;3.80;;
80567;SDS011;69922;45.656;25.586;2023-05-07T02:07:23;10.70;;;4.40;;
80567;SDS011;69922;45.656;25.586;2023-05-07T02:08:30;7.50;;;4.10;;
80567;SDS011;69922;45.656;25.586;2023-05-07T02:09:35;7.40;;;4.70;;
80567;SDS011;69922;45.656;25.586;2023-05-07T02:10:42;6.30;;;3.70;;
80567;SDS011;69922;45.656;25.586;2023-05-07T02:11:47;6.30;;;4.30;;
80567;SDS011;69922;45.656;25.586;2023-05-07T02:12:54;5.10;;;3.80;;
80567;SDS011;69922;45.656;25.586;2023-05-07T02:14:00;6.50;;;3.70;;
80567;SDS011;69922;45.656;25.586;2023-05-07T02:15:06;6.10;;;3.60;;
80567;SDS011;69922;45.656;25.586;2023-05-07T02:17:19;6.90;;;3.70;;
80567;SDS011;69922;45.656;25.586;2023-05-07T02:18:25;5.30;;;3.70;;
80567;SDS011;69922;45.656;25.586;2023-05-07T02:19:31;5.10;;;3.60;;
80567;SDS011;69922;45.656;25.586;2023-05-07T02:20:38;5.60;;;3.90;;
80567;SDS011;69922;45.656;25.586;2023-05-07T02:21:44;6.70;;;3.70;;
80567;SDS011;69922;45.656;25.586;2023-05-07T02:22:50;6.90;;;4.30;;
80567;SDS011;69922;45.656;25.586;2023-05-07T02:23:57;6.50;;;4.10;;
80567;SDS011;69922;45.656;25.586;2023-05-07T02:25:04;9.10;;;4.00;;
80567;SDS011;69922;45.656;25.586;2023-05-07T02:26:11;5.80;;;4.00;;
80567;SDS011;69922;45.656;25.586;2023-05-07T02:27:16;6.60;;;3.80;;
80567;SDS011;69922;45.656;25.586;2023-05-07T02:28:23;10.70;;;4.60;;
80567;SDS011;69922;45.656;25.586;2023-05-07T02:29:29;7.30;;;4.00;;
80567;SDS011;69922;45.656;25.586;2023-05-07T02:30:36;5.80;;;4.10;;
80567;SDS011;69922;45.656;25.586;2023-05-07T02:31:44;5.10;;;4.10;;
80567;SDS011;69922;45.656;25.586;2023-05-07T02:32:55;8.90;;;4.20;;
80567;SDS011;69922;45.656;25.586;2023-05-07T02:34:02;6.70;;;4.20;;
80567;SDS011;69922;45.656;25.586;2023-05-07T02:35:08;6.30;;;4.20;;
80567;SDS011;69922;45.656;25.586;2023-05-07T02:36:15;7.00;;;4.30;;
80567;SDS011;69922;45.656;25.586;2023-05-07T02:37:22;5.70;;;4.00;;
80567;SDS011;69922;45.656;25.586;2023-05-07T02:38:29;5.60;;;4.60;;
80567;SDS011;69922;45.656;25.586;2023-05-07T02:39:35;5.50;;;3.70;;
80567;SDS011;69922;45.656;25.586;2023-05-07T02:40:41;5.80;;;3.50;;
80567;SDS011;69922;45.656;25.586;2023-05-07T02:41:48;7.20;;;3.30;;
80567;SDS011;69922;45.656;25.586;2023-05-07T02:42:54;8.50;;;3.60;;
80567;SDS011;69922;45.656;25.586;2023-05-07T02:44:01;5.30;;;3.20;;
80567;SDS011;69922;45.656;25.586;2023-05-07T02:45:09;4.40;;;3.00;;
80567;SDS011;69922;45.656;25.586;2023-05-07T02:46:16;4.30;;;2.70;;
80567;SDS011;69922;45.656;25.586;2023-05-07T02:47:22;5.20;;;3.10;;
80567;SDS011;69922;45.656;25.586;2023-05-07T02:48:31;4.40;;;3.40;;
80567;SDS011;69922;45.656;25.586;2023-05-07T02:49:38;4.80;;;3.60;;
80567;SDS011;69922;45.656;25.586;2023-05-07T02:50:45;5.60;;;3.50;;
80567;SDS011;69922;45.656;25.586;2023-05-07T02:51:50;6.60;;;3.70;;
80567;SDS011;69922;45.656;25.586;2023-05-07T02:52:56;5.70;;;3.00;;
80567;SDS011;69922;45.656;25.586;2023-05-07T02:54:02;5.10;;;3.10;;
80567;SDS011;69922;45.656;25.586;2023-05-07T02:55:09;5.20;;;3.70;;
80567;SDS011;69922;45.656;25.586;2023-05-07T02:56:15;5.70;;;3.10;;
80567;SDS011;69922;45.656;25.586;2023-05-07T02:57:22;4.80;;;3.40;;
80567;SDS011;69922;45.656;25.586;2023-05-07T02:58:28;5.60;;;3.10;;
80567;SDS011;69922;45.656;25.586;2023-05-07T02:59:34;5.90;;;3.50;;
80567;SDS011;69922;45.656;25.586;2023-05-07T03:00:41;5.60;;;3.50;;
80567;SDS011;69922;45.656;25.586;2023-05-07T03:01:48;5.70;;;3.80;;
80567;SDS011;69922;45.656;25.586;2023-05-07T03:02:54;5.70;;;4.60;;
80567;SDS011;69922;45.656;25.586;2023-05-07T03:04:01;8.40;;;5.00;;
80567;SDS011;69922;45.656;25.586;2023-05-07T03:05:07;6.80;;;4.00;;
80567;SDS011;69922;45.656;25.586;2023-05-07T03:06:14;6.80;;;4.10;;
80567;SDS011;69922;45.656;25.586;2023-05-07T03:08:27;7.70;;;4.00;;
80567;SDS011;69922;45.656;25.586;2023-05-07T03:09:33;6.90;;;4.70;;
80567;SDS011;69922;45.656;25.586;2023-05-07T03:10:39;6.10;;;3.90;;
80567;SDS011;69922;45.656;25.586;2023-05-07T03:11:45;8.10;;;4.70;;
80567;SDS011;69922;45.656;25.586;2023-05-07T03:12:52;7.10;;;4.70;;
80567;SDS011;69922;45.656;25.586;2023-05-07T03:13:59;6.10;;;4.40;;
80567;SDS011;69922;45.656;25.586;2023-05-07T03:15:05;7.20;;;4.50;;
80567;SDS011;69922;45.656;25.586;2023-05-07T03:16:14;6.00;;;4.40;;
80567;SDS011;69922;45.656;25.586;2023-05-07T03:17:22;9.70;;;4.70;;
80567;SDS011;69922;45.656;25.586;2023-05-07T03:18:28;5.60;;;4.30;;
80567;SDS011;69922;45.656;25.586;2023-05-07T03:19:35;5.70;;;4.40;;
80567;SDS011;69922;45.656;25.586;2023-05-07T03:20:41;6.30;;;4.00;;
80567;SDS011;69922;45.656;25.586;2023-05-07T03:21:47;5.60;;;4.20;;
80567;SDS011;69922;45.656;25.586;2023-05-07T03:22:54;6.80;;;4.30;;
80567;SDS011;69922;45.656;25.586;2023-05-07T03:24:00;4.60;;;3.00;;
80567;SDS011;69922;45.656;25.586;2023-05-07T03:25:08;4.80;;;3.00;;
80567;SDS011;69922;45.656;25.586;2023-05-07T03:26:14;4.40;;;2.90;;
80567;SDS011;69922;45.656;25.586;2023-05-07T03:27:20;5.80;;;2.60;;
80567;SDS011;69922;45.656;25.586;2023-05-07T03:28:26;4.40;;;2.70;;
80567;SDS011;69922;45.656;25.586;2023-05-07T03:29:32;6.80;;;2.60;;
80567;SDS011;69922;45.656;25.586;2023-05-07T03:30:39;4.00;;;3.10;;
80567;SDS011;69922;45.656;25.586;2023-05-07T03:31:45;5.20;;;2.50;;
80567;SDS011;69922;45.656;25.586;2023-05-07T03:32:52;6.00;;;2.70;;
80567;SDS011;69922;45.656;25.586;2023-05-07T03:33:57;4.00;;;2.60;;
80567;SDS011;69922;45.656;25.586;2023-05-07T03:35:05;4.30;;;2.80;;
80567;SDS011;69922;45.656;25.586;2023-05-07T03:36:11;3.30;;;2.40;;
80567;SDS011;69922;45.656;25.586;2023-05-07T03:37:17;4.20;;;2.70;;
80567;SDS011;69922;45.656;25.586;2023-05-07T03:38:23;3.00;;;2.40;;
80567;SDS011;69922;45.656;25.586;2023-05-07T03:39:31;3.30;;;2.20;;
80567;SDS011;69922;45.656;25.586;2023-05-07T03:40:37;3.20;;;2.60;;
80567;SDS011;69922;45.656;25.586;2023-05-07T03:41:43;5.30;;;2.80;;
80567;SDS011;69922;45.656;25.586;2023-05-07T03:42:50;8.80;;;4.90;;
80567;SDS011;69922;45.656;25.586;2023-05-07T03:43:57;6.10;;;2.90;;
80567;SDS011;69922;45.656;25.586;2023-05-07T03:45:03;3.90;;;2.60;;
80567;SDS011;69922;45.656;25.586;2023-05-07T03:46:11;3.80;;;2.00;;
80567;SDS011;69922;45.656;25.586;2023-05-07T03:47:17;5.00;;;2.60;;
80567;SDS011;69922;45.656;25.586;2023-05-07T03:48:23;3.50;;;2.40;;
80567;SDS011;69922;45.656;25.586;2023-05-07T03:49:30;3.00;;;2.30;;
80567;SDS011;69922;45.656;25.586;2023-05-07T03:50:37;5.00;;;2.40;;
80567;SDS011;69922;45.656;25.586;2023-05-07T03:51:43;3.60;;;2.50;;
80567;SDS011;69922;45.656;25.586;2023-05-07T03:52:49;4.00;;;2.30;;
80567;SDS011;69922;45.656;25.586;2023-05-07T03:53:56;4.30;;;2.50;;
80567;SDS011;69922;45.656;25.586;2023-05-07T03:55:03;2.90;;;2.00;;
80567;SDS011;69922;45.656;25.586;2023-05-07T03:56:11;4.40;;;2.40;;
80567;SDS011;69922;45.656;25.586;2023-05-07T03:57:17;3.30;;;2.20;;
80567;SDS011;69922;45.656;25.586;2023-05-07T03:58:24;4.30;;;2.80;;
80567;SDS011;69922;45.656;25.586;2023-05-07T03:59:30;3.40;;;2.30;;
80567;SDS011;69922;45.656;25.586;2023-05-07T04:00:37;4.50;;;2.70;;
80567;SDS011;69922;45.656;25.586;2023-05-07T04:01:44;4.60;;;2.20;;
80567;SDS011;69922;45.656;25.586;2023-05-07T04:02:50;3.30;;;2.20;;
80567;SDS011;69922;45.656;25.586;2023-05-07T04:03:57;4.00;;;2.40;;
80567;SDS011;69922;45.656;25.586;2023-05-07T04:05:04;5.20;;;2.40;;
80567;SDS011;69922;45.656;25.586;2023-05-07T04:06:11;4.60;;;2.40;;
80567;SDS011;69922;45.656;25.586;2023-05-07T04:07:17;3.50;;;2.00;;
80567;SDS011;69922;45.656;25.586;2023-05-07T04:08:23;5.00;;;1.90;;
80567;SDS011;69922;45.656;25.586;2023-05-07T04:09:29;3.50;;;2.10;;
80567;SDS011;69922;45.656;25.586;2023-05-07T04:10:36;3.50;;;2.00;;
80567;SDS011;69922;45.656;25.586;2023-05-07T04:11:42;3.00;;;2.10;;
80567;SDS011;69922;45.656;25.586;2023-05-07T04:12:48;3.10;;;2.30;;
80567;SDS011;69922;45.656;25.586;2023-05-07T04:13:54;2.50;;;1.90;;
80567;SDS011;69922;45.656;25.586;2023-05-07T04:15:01;4.40;;;2.10;;
80567;SDS011;69922;45.656;25.586;2023-05-07T04:16:07;2.30;;;2.10;;
80567;SDS011;69922;45.656;25.586;2023-05-07T04:17:14;2.80;;;2.10;;
80567;SDS011;69922;45.656;25.586;2023-05-07T04:18:20;5.20;;;2.20;;
80567;SDS011;69922;45.656;25.586;2023-05-07T04:19:27;4.70;;;2.60;;
80567;SDS011;69922;45.656;25.586;2023-05-07T04:20:33;3.80;;;2.00;;
80567;SDS011;69922;45.656;25.586;2023-05-07T04:21:44;5.10;;;2.50;;
80567;SDS011;69922;45.656;25.586;2023-05-07T04:22:50;3.80;;;1.80;;
80567;SDS011;69922;45.656;25.586;2023-05-07T04:23:56;3.60;;;2.00;;
80567;SDS011;69922;45.656;25.586;2023-05-07T04:25:02;2.70;;;2.40;;
80567;SDS011;69922;45.656;25.586;2023-05-07T04:26:09;5.80;;;2.50;;
80567;SDS011;69922;45.656;25.586;2023-05-07T04:27:16;3.60;;;2.10;;
80567;SDS011;69922;45.656;25.586;2023-05-07T04:28:22;5.00;;;3.20;;
80567;SDS011;69922;45.656;25.586;2023-05-07T04:29:29;2.80;;;2.30;;
80567;SDS011;69922;45.656;25.586;2023-05-07T04:30:36;8.40;;;2.70;;
80567;SDS011;69922;45.656;25.586;2023-05-07T04:31:42;4.20;;;2.30;;
80567;SDS011;69922;45.656;25.586;2023-05-07T04:32:48;3.30;;;2.30;;
80567;SDS011;69922;45.656;25.586;2023-05-07T04:33:55;4.00;;;2.60;;
80567;SDS011;69922;45.656;25.586;2023-05-07T04:35:01;4.00;;;3.20;;
80567;SDS011;69922;45.656;25.586;2023-05-07T04:36:08;6.90;;;2.50;;
80567;SDS011;69922;45.656;25.586;2023-05-07T04:37:15;3.70;;;2.40;;
80567;SDS011;69922;45.656;25.586;2023-05-07T04:38:22;5.00;;;2.40;;
80567;SDS011;69922;45.656;25.586;2023-05-07T04:39:28;3.70;;;2.30;;
80567;SDS011;69922;45.656;25.586;2023-05-07T04:40:36;5.20;;;2.20;;
80567;SDS011;69922;45.656;25.586;2023-05-07T04:41:43;4.80;;;2.70;;
80567;SDS011;69922;45.656;25.586;2023-05-07T04:42:49;3.10;;;1.80;;
80567;SDS011;69922;45.656;25.586;2023-05-07T04:43:55;3.80;;;2.00;;
80567;SDS011;69922;45.656;25.586;2023-05-07T04:45:04;2.30;;;2.10;;
80567;SDS011;69922;45.656;25.586;2023-05-07T04:46:12;3.10;;;2.10;;
80567;SDS011;69922;45.656;25.586;2023-05-07T04:47:19;3.40;;;2.00;;
80567;SDS011;69922;45.656;25.586;2023-05-07T04:48:25;3.30;;;2.30;;
80567;SDS011;69922;45.656;25.586;2023-05-07T04:49:33;3.90;;;2.10;;
80567;SDS011;69922;45.656;25.586;2023-05-07T04:50:39;4.60;;;2.30;;
80567;SDS011;69922;45.656;25.586;2023-05-07T04:51:45;3.00;;;1.80;;
80567;SDS011;69922;45.656;25.586;2023-05-07T04:53:59;4.10;;;2.10;;
80567;SDS011;69922;45.656;25.586;2023-05-07T04:55:06;3.10;;;2.10;;
80567;SDS011;69922;45.656;25.586;2023-05-07T04:56:14;2.80;;;2.00;;
80567;SDS011;69922;45.656;25.586;2023-05-07T04:57:22;4.20;;;2.40;;
80567;SDS011;69922;45.656;25.586;2023-05-07T04:58:29;4.80;;;2.10;;
80567;SDS011;69922;45.656;25.586;2023-05-07T04:59:37;4.20;;;2.20;;
80567;SDS011;69922;45.656;25.586;2023-05-07T05:00:43;3.30;;;2.40;;
80567;SDS011;69922;45.656;25.586;2023-05-07T05:01:51;3.30;;;2.30;;
80567;SDS011;69922;45.656;25.586;2023-05-07T05:02:59;3.00;;;1.90;;
80567;SDS011;69922;45.656;25.586;2023-05-07T05:04:05;3.60;;;2.20;;
80567;SDS011;69922;45.656;25.586;2023-05-07T05:05:11;11.30;;;3.40;;
80567;SDS011;69922;45.656;25.586;2023-05-07T05:06:19;3.10;;;2.10;;
80567;SDS011;69922;45.656;25.586;2023-05-07T05:07:25;4.40;;;2.30;;
80567;SDS011;69922;45.656;25.586;2023-05-07T05:08:31;2.40;;;2.00;;
80567;SDS011;69922;45.656;25.586;2023-05-07T05:09:37;4.80;;;2.30;;
80567;SDS011;69922;45.656;25.586;2023-05-07T05:10:44;3.20;;;2.20;;
80567;SDS011;69922;45.656;25.586;2023-05-07T05:11:52;3.70;;;2.10;;
80567;SDS011;69922;45.656;25.586;2023-05-07T05:12:59;4.50;;;2.30;;
80567;SDS011;69922;45.656;25.586;2023-05-07T05:14:06;4.80;;;2.10;;
80567;SDS011;69922;45.656;25.586;2023-05-07T05:15:12;4.10;;;2.60;;
80567;SDS011;69922;45.656;25.586;2023-05-07T05:16:19;4.00;;;2.20;;
80567;SDS011;69922;45.656;25.586;2023-05-07T05:17:27;3.00;;;2.00;;
80567;SDS011;69922;45.656;25.586;2023-05-07T05:18:33;3.00;;;2.00;;
80567;SDS011;69922;45.656;25.586;2023-05-07T05:19:40;4.60;;;1.90;;
80567;SDS011;69922;45.656;25.586;2023-05-07T05:20:46;3.50;;;2.50;;
80567;SDS011;69922;45.656;25.586;2023-05-07T05:21:56;3.60;;;2.10;;
80567;SDS011;69922;45.656;25.586;2023-05-07T05:23:02;5.80;;;2.90;;
80567;SDS011;69922;45.656;25.586;2023-05-07T05:24:10;3.90;;;2.40;;
80567;SDS011;69922;45.656;25.586;2023-05-07T05:25:16;4.80;;;2.70;;
80567;SDS011;69922;45.656;25.586;2023-05-07T05:26:23;3.10;;;2.10;;
80567;SDS011;69922;45.656;25.586;2023-05-07T05:27:30;3.70;;;2.20;;
80567;SDS011;69922;45.656;25.586;2023-05-07T05:28:36;3.70;;;2.30;;
80567;SDS011;69922;45.656;25.586;2023-05-07T05:29:43;4.90;;;2.70;;
80567;SDS011;69922;45.656;25.586;2023-05-07T05:30:50;5.20;;;2.30;;
80567;SDS011;69922;45.656;25.586;2023-05-07T05:31:56;4.30;;;2.60;;
80567;SDS011;69922;45.656;25.586;2023-05-07T05:33:03;4.70;;;2.30;;
80567;SDS011;69922;45.656;25.586;2023-05-07T05:34:09;2.80;;;2.20;;
80567;SDS011;69922;45.656;25.586;2023-05-07T05:35:15;2.50;;;2.30;;
80567;SDS011;69922;45.656;25.586;2023-05-07T05:36:21;3.20;;;2.30;;
80567;SDS011;69922;45.656;25.586;2023-05-07T05:37:28;3.70;;;2.30;;
80567;SDS011;69922;45.656;25.586;2023-05-07T05:38:36;3.00;;;2.10;;
80567;SDS011;69922;45.656;25.586;2023-05-07T05:39:42;4.50;;;2.70;;
80567;SDS011;69922;45.656;25.586;2023-05-07T05:40:48;3.20;;;1.90;;
80567;SDS011;69922;45.656;25.586;2023-05-07T05:41:54;2.30;;;1.80;;
80567;SDS011;69922;45.656;25.586;2023-05-07T05:43:01;3.20;;;2.20;;
80567;SDS011;69922;45.656;25.586;2023-05-07T05:44:07;3.30;;;2.10;;
80567;SDS011;69922;45.656;25.586;2023-05-07T05:45:13;4.70;;;2.50;;
80567;SDS011;69922;45.656;25.586;2023-05-07T05:46:21;3.30;;;1.80;;
80567;SDS011;69922;45.656;25.586;2023-05-07T05:47:27;5.00;;;2.10;;
80567;SDS011;69922;45.656;25.586;2023-05-07T05:48:33;3.30;;;2.20;;
80567;SDS011;69922;45.656;25.586;2023-05-07T05:49:40;2.70;;;1.90;;
80567;SDS011;69922;45.656;25.586;2023-05-07T05:50:47;2.90;;;2.30;;
80567;SDS011;69922;45.656;25.586;2023-05-07T05:51:54;3.10;;;2.70;;
80567;SDS011;69922;45.656;25.586;2023-05-07T05:53:01;3.80;;;2.40;;
80567;SDS011;69922;45.656;25.586;2023-05-07T05:54:07;4.50;;;2.30;;
80567;SDS011;69922;45.656;25.586;2023-05-07T05:55:14;2.50;;;2.20;;
80567;SDS011;69922;45.656;25.586;2023-05-07T05:56:20;4.00;;;2.20;;
80567;SDS011;69922;45.656;25.586;2023-05-07T05:57:26;2.60;;;2.20;;
80567;SDS011;69922;45.656;25.586;2023-05-07T05:58:33;3.70;;;2.20;;
80567;SDS011;69922;45.656;25.586;2023-05-07T05:59:40;4.30;;;2.40;;
80567;SDS011;69922;45.656;25.586;2023-05-07T06:00:47;3.60;;;2.30;;
80567;SDS011;69922;45.656;25.586;2023-05-07T06:01:57;5.70;;;2.30;;
80567;SDS011;69922;45.656;25.586;2023-05-07T06:03:03;3.60;;;2.00;;
80567;SDS011;69922;45.656;25.586;2023-05-07T06:04:10;3.20;;;2.20;;
80567;SDS011;69922;45.656;25.586;2023-05-07T06:05:17;4.30;;;2.40;;
80567;SDS011;69922;45.656;25.586;2023-05-07T06:06:23;4.60;;;2.70;;
80567;SDS011;69922;45.656;25.586;2023-05-07T06:07:30;6.00;;;2.20;;
80567;SDS011;69922;45.656;25.586;2023-05-07T06:08:36;6.10;;;2.30;;
80567;SDS011;69922;45.656;25.586;2023-05-07T06:09:42;3.70;;;2.40;;
80567;SDS011;69922;45.656;25.586;2023-05-07T06:10:48;3.00;;;2.20;;
80567;SDS011;69922;45.656;25.586;2023-05-07T06:11:56;4.30;;;2.20;;
80567;SDS011;69922;45.656;25.586;2023-05-07T06:13:04;3.80;;;2.40;;
80567;SDS011;69922;45.656;25.586;2023-05-07T06:14:11;3.80;;;2.30;;
80567;SDS011;69922;45.656;25.586;2023-05-07T06:15:18;3.50;;;3.00;;
80567;SDS011;69922;45.656;25.586;2023-05-07T06:16:26;3.30;;;2.20;;
80567;SDS011;69922;45.656;25.586;2023-05-07T06:17:33;3.20;;;2.30;;
80567;SDS011;69922;45.656;25.586;2023-05-07T06:18:40;3.30;;;2.50;;
80567;SDS011;69922;45.656;25.586;2023-05-07T06:19:46;4.10;;;2.30;;
80567;SDS011;69922;45.656;25.586;2023-05-07T06:20:52;4.00;;;2.30;;
80567;SDS011;69922;45.656;25.586;2023-05-07T06:21:59;4.90;;;2.20;;
80567;SDS011;69922;45.656;25.586;2023-05-07T06:23:07;4.60;;;2.60;;
80567;SDS011;69922;45.656;25.586;2023-05-07T06:24:13;3.80;;;1.90;;
80567;SDS011;69922;45.656;25.586;2023-05-07T06:25:19;2.40;;;2.00;;
80567;SDS011;69922;45.656;25.586;2023-05-07T06:26:26;3.40;;;2.40;;
80567;SDS011;69922;45.656;25.586;2023-05-07T06:27:34;3.70;;;2.30;;
80567;SDS011;69922;45.656;25.586;2023-05-07T06:28:40;5.10;;;2.30;;
80567;SDS011;69922;45.656;25.586;2023-05-07T06:29:47;3.50;;;2.20;;
80567;SDS011;69922;45.656;25.586;2023-05-07T06:30:54;6.80;;;3.00;;
80567;SDS011;69922;45.656;25.586;2023-05-07T06:32:12;4.50;;;2.50;;
80567;SDS011;69922;45.656;25.586;2023-05-07T06:33:19;3.90;;;2.10;;
80567;SDS011;69922;45.656;25.586;2023-05-07T06:34:25;4.00;;;1.90;;
80567;SDS011;69922;45.656;25.586;2023-05-07T06:35:32;3.40;;;2.30;;
80567;SDS011;69922;45.656;25.586;2023-05-07T06:36:38;4.70;;;2.40;;
80567;SDS011;69922;45.656;25.586;2023-05-07T06:37:45;2.50;;;2.00;;
80567;SDS011;69922;45.656;25.586;2023-05-07T06:38:52;3.00;;;2.10;;
80567;SDS011;69922;45.656;25.586;2023-05-07T06:39:59;3.40;;;2.30;;